Time,TemperatureF,DewpointF,PressureIn,WindDirection,WindDirectionDegrees,WindSpeedMPH,WindSpeedGustMPH,Humidity,HourlyPrecipIn,Conditions,Clouds,dailyrainin,SoftwareType,DateUTC
2013-04-11 00:03:00,67.0,54.0,29.88,SE,126,1.0,1.0,63,0.00,,,0.00,,2013-04-11 04:03:00,
2013-04-11 00:13:00,66.0,53.0,29.88,SE,126,1.0,1.0,64,0.00,,,0.00,,2013-04-11 04:13:00,
2013-04-11 00:22:00,66.0,53.0,29.88,SE,126,1.0,1.0,64,0.00,,,0.00,,2013-04-11 04:22:00,
2013-04-11 00:33:00,66.0,53.0,29.88,SE,126,1.0,1.0,64,0.00,,,0.00,,2013-04-11 04:33:00,
2013-04-11 00:43:00,66.0,53.0,29.88,SE,126,1.0,1.0,64,0.00,,,0.00,,2013-04-11 04:43:00,
2013-04-11 00:52:00,66.0,53.0,29.88,SE,126,1.0,1.0,64,0.00,,,0.00,,2013-04-11 04:52:00,
2013-04-11 01:52:00,66.0,53.0,29.88,SE,126,1.0,1.0,64,0.00,,,0.00,,2013-04-11 05:52:00,
2013-04-11 02:02:00,66.0,53.0,29.88,SE,126,1.0,1.0,64,0.00,,,0.00,,2013-04-11 06:02:00,
2013-04-11 02:12:00,66.0,53.0,29.88,SE,126,1.0,1.0,64,0.00,,,0.00,,2013-04-11 06:12:00,
2013-04-11 02:22:00,66.0,54.0,29.88,SE,126,1.0,1.0,65,0.00,,,0.00,,2013-04-11 06:22:00,
2013-04-11 02:32:00,65.0,53.0,29.87,SE,126,1.0,1.0,65,0.00,,,0.00,,2013-04-11 06:32:00,
2013-04-11 02:42:00,65.0,53.0,29.87,SE,126,1.0,1.0,65,0.00,,,0.00,,2013-04-11 06:42:00,
2013-04-11 02:52:00,65.0,53.0,29.87,SE,126,1.0,1.0,65,0.00,,,0.00,,2013-04-11 06:52:00,
2013-04-11 03:02:00,65.0,53.0,29.87,SE,126,1.0,1.0,65,0.00,,,0.00,,2013-04-11 07:02:00,
2013-04-11 03:12:00,65.0,53.0,29.87,SE,126,1.0,1.0,65,0.00,,,0.00,,2013-04-11 07:12:00,
2013-04-11 04:03:00,63.0,52.0,29.85,SE,126,1.0,1.0,68,0.00,,,0.00,,2013-04-11 08:03:00,
2013-04-11 04:12:00,63.0,52.0,29.85,SE,126,1.0,1.0,68,0.00,,,0.00,,2013-04-11 08:12:00,
2013-04-11 04:22:00,63.0,52.0,29.85,SE,126,1.0,1.0,68,0.00,,,0.00,,2013-04-11 08:22:00,
2013-04-11 04:32:00,63.0,52.0,29.85,SE,126,1.0,1.0,68,0.00,,,0.00,,2013-04-11 08:32:00,
2013-04-11 04:42:00,63.0,52.0,29.85,SE,126,1.0,1.0,68,0.00,,,0.00,,2013-04-11 08:42:00,
2013-04-11 04:52:00,63.0,52.0,29.85,SE,126,1.0,1.0,68,0.00,,,0.00,,2013-04-11 08:52:00,
2013-04-11 05:02:00,63.0,52.0,29.85,SE,126,1.0,1.0,68,0.00,,,0.00,,2013-04-11 09:02:00,
2013-04-11 05:12:00,63.0,52.0,29.85,SE,126,1.0,1.0,68,0.00,,,0.00,,2013-04-11 09:12:00,
2013-04-11 05:22:00,63.0,52.0,29.85,SE,126,1.0,1.0,68,0.00,,,0.00,,2013-04-11 09:22:00,
2013-04-11 05:33:00,62.0,52.0,29.85,SE,126,1.0,1.0,70,0.00,,,0.00,,2013-04-11 09:33:00,
2013-04-11 05:43:00,62.0,52.0,29.85,SE,126,1.0,1.0,70,0.00,,,0.00,,2013-04-11 09:43:00,
2013-04-11 05:53:00,62.0,52.0,29.85,SE,126,1.0,1.0,70,0.00,,,0.00,,2013-04-11 09:53:00,
2013-04-11 06:02:00,62.0,52.0,29.85,SE,126,1.0,1.0,70,0.00,,,0.00,,2013-04-11 10:02:00,
2013-04-11 06:12:00,62.0,52.0,29.85,SE,126,1.0,1.0,70,0.00,,,0.00,,2013-04-11 10:12:00,
2013-04-11 06:32:00,62.0,52.0,29.84,SE,126,1.0,1.0,70,0.00,,,0.00,,2013-04-11 10:32:00,
2013-04-11 06:42:00,62.0,52.0,29.84,SE,126,1.0,1.0,70,0.00,,,0.00,,2013-04-11 10:42:00,
2013-04-11 06:52:00,62.0,52.0,29.85,SE,126,1.0,1.0,71,0.00,,,0.00,,2013-04-11 10:52:00,
2013-04-11 07:03:00,62.0,52.0,29.85,SE,126,1.0,1.0,71,0.00,,,0.00,,2013-04-11 11:03:00,
2013-04-11 07:12:00,61.0,52.0,29.85,SE,126,1.0,1.0,72,0.00,,,0.00,,2013-04-11 11:12:00,
2013-04-11 07:23:00,61.0,52.0,29.85,SE,126,1.0,1.0,73,0.00,,,0.00,,2013-04-11 11:23:00,
2013-04-11 07:32:00,60.0,51.0,29.85,SE,126,1.0,1.0,73,0.00,,,0.00,,2013-04-11 11:32:00,
2013-04-11 07:43:00,60.0,51.0,29.85,SE,126,1.0,1.0,73,0.00,,,0.00,,2013-04-11 11:43:00,
2013-04-11 07:52:00,60.0,51.0,29.85,SE,126,1.0,1.0,73,0.00,,,0.00,,2013-04-11 11:52:00,
2013-04-11 08:02:00,61.0,53.0,29.86,SE,126,1.0,1.0,74,0.00,,,0.00,,2013-04-11 12:02:00,
2013-04-11 08:12:00,61.0,53.0,29.86,SE,126,1.0,1.0,74,0.00,,,0.00,,2013-04-11 12:12:00,
2013-04-11 08:23:00,61.0,53.0,29.86,SE,126,1.0,1.0,74,0.00,,,0.00,,2013-04-11 12:23:00,
2013-04-11 08:32:00,62.0,53.0,29.86,SE,126,1.0,1.0,72,0.00,,,0.00,,2013-04-11 12:32:00,
2013-04-11 08:43:00,62.0,53.0,29.86,SE,126,1.0,1.0,72,0.00,,,0.00,,2013-04-11 12:43:00,
2013-04-11 08:52:00,62.0,53.0,29.87,SSW,194,0.0,0.0,72,0.00,,,0.00,,2013-04-11 12:52:00,
2013-04-11 09:02:00,63.0,53.0,29.86,SSW,194,0.0,0.0,71,0.00,,,0.00,,2013-04-11 13:02:00,
2013-04-11 09:13:00,64.0,54.0,29.85,SE,132,0.0,0.0,71,0.00,,,0.00,,2013-04-11 13:13:00,
2013-04-11 09:23:00,64.0,54.0,29.85,SE,132,0.0,0.0,71,0.00,,,0.00,,2013-04-11 13:23:00,
2013-04-11 09:32:00,64.0,53.0,29.86,SE,130,0.0,0.0,68,0.00,,,0.00,,2013-04-11 13:32:00,
2013-04-11 09:43:00,64.0,53.0,29.86,SE,130,0.0,0.0,68,0.00,,,0.00,,2013-04-11 13:43:00,
2013-04-11 09:53:00,64.0,53.0,29.86,SE,130,0.0,0.0,68,0.00,,,0.00,,2013-04-11 13:53:00,
2013-04-11 10:03:00,65.0,54.0,29.85,ESE,117,0.0,0.0,68,0.00,,,0.00,,2013-04-11 14:03:00,
2013-04-11 10:13:00,65.0,53.0,29.84,SSE,162,0.0,1.0,66,0.00,,,0.00,,2013-04-11 14:13:00,
2013-04-11 10:22:00,65.0,53.0,29.84,SSE,162,0.0,1.0,66,0.00,,,0.00,,2013-04-11 14:22:00,
2013-04-11 10:33:00,66.0,54.0,29.84,South,186,8.0,9.0,66,0.00,,,0.00,,2013-04-11 14:33:00,
2013-04-11 10:42:00,66.0,54.0,29.84,South,186,8.0,9.0,66,0.00,,,0.00,,2013-04-11 14:42:00,
2013-04-11 10:52:00,66.0,54.0,29.84,SSE,165,0.0,8.0,66,0.00,,,0.00,,2013-04-11 14:52:00,
2013-04-11 11:02:00,66.0,54.0,29.84,SSE,165,0.0,8.0,66,0.00,,,0.00,,2013-04-11 15:02:00,
2013-04-11 11:12:00,66.0,54.0,29.84,SSE,165,0.0,8.0,66,0.00,,,0.00,,2013-04-11 15:12:00,
2013-04-11 11:22:00,66.0,54.0,29.84,SSE,165,0.0,8.0,66,0.00,,,0.00,,2013-04-11 15:22:00,
2013-04-11 11:32:00,67.0,53.0,29.84,South,175,6.0,8.0,61,0.00,,,0.00,,2013-04-11 15:32:00,
2013-04-11 11:43:00,67.0,53.0,29.84,South,175,6.0,8.0,61,0.00,,,0.00,,2013-04-11 15:43:00,
2013-04-11 11:53:00,67.0,53.0,29.84,SSE,159,9.0,12.0,60,0.00,,,0.00,,2013-04-11 15:53:00,
2013-04-11 12:02:00,68.0,52.0,29.84,South,180,4.0,9.0,57,0.00,,,0.00,,2013-04-11 16:02:00,
2013-04-11 12:13:00,68.0,52.0,29.84,South,180,4.0,9.0,57,0.00,,,0.00,,2013-04-11 16:13:00,
2013-04-11 12:23:00,68.0,52.0,29.83,SSW,202,3.0,4.0,57,0.00,,,0.00,,2013-04-11 16:23:00,
2013-04-11 12:32:00,69.0,52.0,29.83,SSE,166,6.0,14.0,54,0.00,,,0.00,,2013-04-11 16:32:00,
2013-04-11 12:42:00,69.0,52.0,29.82,SSW,207,1.0,10.0,54,0.00,,,0.00,,2013-04-11 16:42:00,
2013-04-11 12:52:00,69.0,52.0,29.82,SSW,207,1.0,10.0,54,0.00,,,0.00,,2013-04-11 16:52:00,
2013-04-11 13:03:00,70.0,53.0,29.81,South,182,2.0,4.0,54,0.00,,,0.00,,2013-04-11 17:03:00,
2013-04-11 13:13:00,70.0,53.0,29.81,South,182,2.0,4.0,54,0.00,,,0.00,,2013-04-11 17:13:00,
2013-04-11 13:23:00,70.0,52.0,29.80,SE,143,2.0,6.0,52,0.00,,,0.00,,2013-04-11 17:23:00,
2013-04-11 13:33:00,71.0,52.0,29.79,South,179,4.0,8.0,51,0.00,,,0.00,,2013-04-11 17:33:00,
2013-04-11 13:43:00,71.0,52.0,29.79,South,179,4.0,8.0,51,0.00,,,0.00,,2013-04-11 17:43:00,
2013-04-11 13:52:00,71.0,52.0,29.79,South,179,4.0,8.0,51,0.00,,,0.00,,2013-04-11 17:52:00,
2013-04-11 14:03:00,73.0,53.0,29.77,SSW,196,10.0,15.0,50,0.00,,,0.00,,2013-04-11 18:03:00,
2013-04-11 14:13:00,73.0,53.0,29.77,SSW,196,10.0,15.0,50,0.00,,,0.00,,2013-04-11 18:13:00,
2013-04-11 14:23:00,72.0,53.0,29.77,WSW,238,4.0,13.0,52,0.00,,,0.00,,2013-04-11 18:23:00,
2013-04-11 14:33:00,71.0,54.0,29.77,South,188,0.0,8.0,54,0.00,,,0.00,,2013-04-11 18:33:00,
2013-04-11 14:42:00,71.0,54.0,29.77,South,188,0.0,8.0,54,0.00,,,0.00,,2013-04-11 18:42:00,
2013-04-11 14:52:00,70.0,53.0,29.77,SSW,202,3.0,11.0,55,0.00,,,0.00,,2013-04-11 18:52:00,
2013-04-11 15:04:00,70.0,53.0,29.77,SSW,202,3.0,11.0,55,0.00,,,0.00,,2013-04-11 19:04:00,
2013-04-11 15:14:00,70.0,53.0,29.77,SSW,202,3.0,11.0,55,0.00,,,0.00,,2013-04-11 19:14:00,
2013-04-11 15:22:00,70.0,53.0,29.77,SSW,202,3.0,11.0,55,0.00,,,0.00,,2013-04-11 19:22:00,
2013-04-11 15:53:00,69.0,54.0,29.75,South,180,0.0,6.0,59,0.00,,,0.00,,2013-04-11 19:53:00,
2013-04-11 16:03:00,68.0,54.0,29.73,SE,143,10.0,10.0,62,0.00,,,0.00,,2013-04-11 20:03:00,
2013-04-11 16:13:00,68.0,54.0,29.73,SE,143,10.0,10.0,62,0.00,,,0.00,,2013-04-11 20:13:00,
2013-04-11 16:22:00,68.0,54.0,29.73,SE,143,10.0,10.0,62,0.00,,,0.00,,2013-04-11 20:22:00,
2013-04-11 16:33:00,70.0,55.0,29.70,SSW,194,1.0,3.0,60,0.00,,,0.00,,2013-04-11 20:33:00,
2013-04-11 16:43:00,70.0,55.0,29.70,SSW,194,1.0,3.0,60,0.00,,,0.00,,2013-04-11 20:43:00,
2013-04-11 16:53:00,70.0,55.0,29.70,SSW,211,7.0,9.0,60,0.00,,,0.00,,2013-04-11 20:53:00,
2013-04-11 17:03:00,69.0,56.0,29.69,SSE,159,4.0,10.0,63,0.00,,,0.00,,2013-04-11 21:03:00,
2013-04-11 17:12:00,69.0,56.0,29.69,SSE,159,4.0,10.0,63,0.00,,,0.00,,2013-04-11 21:12:00,
2013-04-11 17:22:00,69.0,55.0,29.68,South,190,3.0,7.0,62,0.00,,,0.00,,2013-04-11 21:22:00,
2013-04-11 17:33:00,69.0,56.0,29.68,SW,214,4.0,4.0,64,0.00,,,0.00,,2013-04-11 21:33:00,
2013-04-11 17:42:00,69.0,56.0,29.68,SW,214,4.0,4.0,64,0.00,,,0.00,,2013-04-11 21:42:00,
2013-04-11 17:53:00,68.0,56.0,29.68,SW,214,4.0,4.0,66,0.00,,,0.00,,2013-04-11 21:53:00,
2013-04-11 18:03:00,64.0,58.0,29.68,SW,214,4.0,4.0,82,0.00,,,0.00,,2013-04-11 22:03:00,
2013-04-11 18:13:00,64.0,58.0,29.68,SW,214,4.0,4.0,82,0.00,,,0.00,,2013-04-11 22:13:00,
2013-04-11 18:23:00,64.0,59.0,29.67,SW,214,4.0,4.0,84,0.00,,,0.00,,2013-04-11 22:23:00,
2013-04-11 18:33:00,66.0,59.0,29.67,SW,214,4.0,4.0,77,0.00,,,0.00,,2013-04-11 22:33:00,
2013-04-11 18:44:00,66.0,59.0,29.67,SW,214,4.0,4.0,77,0.00,,,0.00,,2013-04-11 22:44:00,
2013-04-11 18:53:00,66.0,57.0,29.66,SW,214,4.0,4.0,74,0.00,,,0.00,,2013-04-11 22:53:00,
2013-04-11 19:03:00,66.0,57.0,29.66,SW,214,4.0,4.0,74,0.00,,,0.00,,2013-04-11 23:03:00,
2013-04-11 19:13:00,66.0,57.0,29.66,SW,214,4.0,4.0,74,0.00,,,0.00,,2013-04-11 23:13:00,
2013-04-11 19:23:00,66.0,58.0,29.66,SW,214,4.0,4.0,76,0.00,,,0.00,,2013-04-11 23:23:00,
2013-04-11 19:33:00,67.0,58.0,29.66,SW,214,4.0,4.0,73,0.00,,,0.00,,2013-04-11 23:33:00,
2013-04-11 19:43:00,67.0,58.0,29.66,SW,214,4.0,4.0,73,0.00,,,0.00,,2013-04-11 23:43:00,
2013-04-11 19:53:00,67.0,58.0,29.66,SW,214,4.0,4.0,73,0.00,,,0.00,,2013-04-11 23:53:00,
2013-04-11 20:02:00,67.0,59.0,29.66,SW,214,4.0,4.0,76,0.00,,,0.00,,2013-04-12 00:02:00,
2013-04-11 20:12:00,67.0,59.0,29.66,SW,214,4.0,4.0,76,0.00,,,0.00,,2013-04-12 00:12:00,
2013-04-11 20:22:00,65.0,59.0,29.65,SW,214,4.0,4.0,82,0.00,,,0.00,,2013-04-12 00:22:00,
2013-04-11 20:32:00,64.0,59.0,29.64,SW,214,4.0,4.0,84,0.00,,,0.00,,2013-04-12 00:32:00,
2013-04-11 20:42:00,64.0,59.0,29.64,SW,214,4.0,4.0,84,0.00,,,0.00,,2013-04-12 00:42:00,
2013-04-11 20:52:00,64.0,59.0,29.64,SW,214,4.0,4.0,84,0.00,,,0.00,,2013-04-12 00:52:00,
2013-04-11 21:02:00,64.0,59.0,29.64,SW,214,4.0,4.0,84,0.00,,,0.00,,2013-04-12 01:02:00,
2013-04-11 21:12:00,64.0,59.0,29.64,SW,214,4.0,4.0,84,0.00,,,0.00,,2013-04-12 01:12:00,
2013-04-11 21:22:00,64.0,59.0,29.64,SW,214,4.0,4.0,84,0.00,,,0.00,,2013-04-12 01:22:00,
2013-04-11 21:33:00,64.0,60.0,29.62,SW,214,4.0,4.0,86,0.00,,,0.00,,2013-04-12 01:33:00,
2013-04-11 21:42:00,64.0,60.0,29.62,SW,214,4.0,4.0,86,0.00,,,0.00,,2013-04-12 01:42:00,
2013-04-11 21:52:00,64.0,60.0,29.64,SW,214,4.0,4.0,87,0.00,,,0.00,,2013-04-12 01:52:00,
2013-04-11 22:03:00,63.0,60.0,29.62,SW,214,4.0,4.0,90,0.00,,,0.00,,2013-04-12 02:03:00,
2013-04-11 22:12:00,63.0,60.0,29.62,SW,214,4.0,4.0,90,0.00,,,0.00,,2013-04-12 02:12:00,
2013-04-11 22:22:00,63.0,60.0,29.62,SW,214,4.0,4.0,90,0.00,,,0.00,,2013-04-12 02:22:00,
2013-04-11 22:32:00,64.0,61.0,29.61,SW,214,4.0,4.0,90,0.00,,,0.00,,2013-04-12 02:32:00,
2013-04-11 22:42:00,64.0,61.0,29.61,SW,214,4.0,4.0,90,0.00,,,0.00,,2013-04-12 02:42:00,
2013-04-11 22:52:00,63.0,60.0,29.65,SW,214,4.0,4.0,90,0.00,,,0.00,,2013-04-12 02:52:00,
2013-04-11 23:02:00,61.0,58.0,29.66,SW,214,4.0,4.0,89,0.00,,,0.00,,2013-04-12 03:02:00,
2013-04-11 23:12:00,61.0,58.0,29.66,SW,214,4.0,4.0,89,0.00,,,0.00,,2013-04-12 03:12:00,
2013-04-11 23:22:00,61.0,58.0,29.66,SW,214,4.0,4.0,89,0.00,,,0.00,,2013-04-12 03:22:00,
2013-04-11 23:33:00,61.0,58.0,29.66,SW,214,4.0,4.0,89,0.00,,,0.00,,2013-04-12 03:33:00,